Time;durP1;ratioP1;P1;durP2;ratioP2;P2;SDS_P1;SDS_P2;PMS_P1;PMS_P2;Temp;Humidity;BMP_temperature;BMP_pressure;BME280_temperature;BME280_humidity;BME280_pressure;Samples;Min_cycle;Max_cycle;Signal;HPM_P1;HPM_P2
2023/08/07 00:02:08;;;;;;;1.38;0.80;;;13.90;72.40;;;;;;5040956;28;20026;-61
2023/08/07 00:04:33;;;;;;;3.10;0.98;;;13.90;72.30;;;;;;5033901;28;20036;-61
2023/08/07 00:06:59;;;;;;;2.28;0.95;;;14.00;72.50;;;;;;5041745;28;20088;-62
2023/08/07 00:09:25;;;;;;;2.35;1.20;;;13.90;72.50;;;;;;5038792;28;20033;-61
2023/08/07 00:11:50;;;;;;;3.03;0.98;;;13.90;72.40;;;;;;5043225;28;20040;-62
2023/08/07 00:14:16;;;;;;;2.92;0.98;;;13.90;72.60;;;;;;5031784;28;20035;-60
2023/08/07 00:16:42;;;;;;;2.28;0.80;;;13.90;72.50;;;;;;5043320;28;20053;-62
2023/08/07 00:19:07;;;;;;;2.40;1.05;;;14.00;72.70;;;;;;5034117;28;20086;-60
2023/08/07 00:21:35;;;;;;;1.73;1.00;;;13.90;72.90;;;;;;5045213;28;20071;-61
2023/08/07 00:24:01;;;;;;;1.38;0.90;;;13.90;72.70;;;;;;5042965;28;20551;-60
2023/08/07 00:26:27;;;;;;;2.55;1.00;;;13.90;72.70;;;;;;5047776;28;20039;-61
2023/08/07 00:28:52;;;;;;;2.75;1.30;;;13.90;72.60;;;;;;5039475;28;20116;-61
2023/08/07 00:31:18;;;;;;;4.85;1.30;;;13.90;72.60;;;;;;5039412;28;20392;-60
2023/08/07 00:33:44;;;;;;;2.88;1.00;;;13.90;72.60;;;;;;5041243;28;20439;-60
2023/08/07 00:36:09;;;;;;;1.80;1.08;;;13.90;72.40;;;;;;5042700;28;20368;-60
2023/08/07 00:38:35;;;;;;;2.45;1.00;;;13.90;72.40;;;;;;5041003;28;20475;-61
2023/08/07 00:41:01;;;;;;;1.23;0.77;;;13.90;72.50;;;;;;5036307;28;20025;-61
2023/08/07 00:43:26;;;;;;;2.17;1.23;;;13.90;72.40;;;;;;5038282;28;20610;-61
2023/08/07 00:45:52;;;;;;;1.65;0.93;;;13.90;72.40;;;;;;5040759;28;20036;-60
2023/08/07 00:48:18;;;;;;;3.33;1.40;;;13.90;72.50;;;;;;5039976;28;20032;-60
2023/08/07 00:50:45;;;;;;;1.42;1.10;;;13.90;72.50;;;;;;5042751;28;20034;-61
2023/08/07 00:53:11;;;;;;;2.92;1.15;;;13.90;72.40;;;;;;5042065;28;20041;-60
2023/08/07 00:55:37;;;;;;;2.63;1.02;;;13.90;72.50;;;;;;5037261;28;20052;-60
2023/08/07 00:58:03;;;;;;;3.30;1.13;;;13.90;72.40;;;;;;5041142;28;20484;-60
2023/08/07 01:00:30;;;;;;;2.00;0.90;;;13.90;72.40;;;;;;5004810;28;20018;-61
2023/08/07 01:02:57;;;;;;;4.53;1.40;;;13.90;72.40;;;;;;5044129;28;20036;-59
2023/08/07 01:05:25;;;;;;;5.63;1.15;;;13.90;72.50;;;;;;5038166;28;20099;-61
2023/08/07 01:07:54;;;;;;;4.38;1.10;;;13.90;72.50;;;;;;5038931;28;20031;-61
2023/08/07 01:10:35;;;;;;;2.80;1.27;;;13.80;72.40;;;;;;5022792;28;20036;-61
2023/08/07 01:13:09;;;;;;;8.88;1.45;;;13.80;72.70;;;;;;5035495;28;20110;-61
2023/08/07 01:15:37;;;;;;;5.35;1.20;;;13.80;72.80;;;;;;5039888;28;20029;-62
2023/08/07 01:18:04;;;;;;;1.73;0.80;;;13.80;72.50;;;;;;4931710;28;20163;-60
2023/08/07 01:20:30;;;;;;;2.40;1.15;;;13.90;72.60;;;;;;5038585;28;20037;-62
2023/08/07 01:22:56;;;;;;;1.92;1.10;;;13.80;72.50;;;;;;5039862;28;20097;-61
2023/08/07 01:25:22;;;;;;;1.33;1.08;;;13.80;72.50;;;;;;5045445;28;20174;-61
2023/08/07 01:28:15;;;;;;;4.93;1.58;;;13.80;72.40;;;;;;5047479;28;20100;-62
2023/08/07 01:30:44;;;;;;;2.30;1.13;;;13.80;72.50;;;;;;5022778;28;20056;-61
2023/08/07 01:33:26;;;;;;;3.13;1.33;;;13.80;72.30;;;;;;5042052;28;20091;-61
2023/08/07 01:35:55;;;;;;;2.88;1.13;;;13.80;72.40;;;;;;5041781;28;20483;-61
2023/08/07 01:38:25;;;;;;;3.45;1.45;;;13.80;72.30;;;;;;5040537;28;20817;-61
2023/08/07 01:40:52;;;;;;;5.20;1.30;;;13.80;72.30;;;;;;5043262;28;20151;-61
2023/08/07 01:43:19;;;;;;;3.60;1.27;;;13.80;72.50;;;;;;5038779;28;20133;-60
2023/08/07 01:45:44;;;;;;;3.90;1.27;;;13.80;72.30;;;;;;5045749;28;20024;-61
2023/08/07 01:48:11;;;;;;;3.47;1.38;;;13.80;72.10;;;;;;5029087;28;20047;-61
2023/08/07 01:50:38;;;;;;;6.05;1.48;;;13.70;72.00;;;;;;5035652;28;20079;-60
2023/08/07 01:53:04;;;;;;;2.85;1.25;;;13.70;72.10;;;;;;5046411;28;20033;-60
2023/08/07 01:55:30;;;;;;;2.13;1.15;;;13.70;72.20;;;;;;5045680;28;20365;-60
2023/08/07 01:57:56;;;;;;;5.47;1.30;;;13.70;72.00;;;;;;5043504;28;20025;-60
2023/08/07 02:00:22;;;;;;;1.65;1.17;;;13.70;71.90;;;;;;5039166;28;20021;-61
2023/08/07 02:02:47;;;;;;;3.10;1.40;;;13.70;71.90;;;;;;5036144;28;20059;-62
2023/08/07 02:05:14;;;;;;;1.90;1.33;;;13.70;71.90;;;;;;5043116;28;22174;-61
2023/08/07 02:07:40;;;;;;;2.40;1.20;;;13.70;72.00;;;;;;5035315;28;20079;-61
2023/08/07 02:10:06;;;;;;;1.55;1.10;;;13.70;72.00;;;;;;5040575;28;20086;-60
2023/08/07 02:12:32;;;;;;;2.72;1.25;;;13.70;72.10;;;;;;5041065;28;20045;-60
2023/08/07 02:14:59;;;;;;;2.53;1.23;;;13.70;72.00;;;;;;5039851;28;20028;-61
2023/08/07 02:17:25;;;;;;;2.92;1.30;;;13.70;72.00;;;;;;4950278;28;20029;-61
2023/08/07 02:19:51;;;;;;;4.78;1.40;;;13.70;71.80;;;;;;5042436;28;20021;-62
2023/08/07 02:22:17;;;;;;;3.03;1.33;;;13.70;71.90;;;;;;5037153;28;20032;-60
2023/08/07 02:24:42;;;;;;;2.83;1.35;;;13.70;71.80;;;;;;5038093;28;20108;-61
2023/08/07 02:27:08;;;;;;;1.38;1.02;;;13.70;71.80;;;;;;5043885;28;20052;-61
2023/08/07 02:29:34;;;;;;;4.72;1.55;;;13.70;71.80;;;;;;5046038;28;20078;-60
2023/08/07 02:32:03;;;;;;;4.72;1.30;;;13.70;71.80;;;;;;5044007;28;20033;-62
2023/08/07 02:34:29;;;;;;;2.92;1.25;;;13.70;72.50;;;;;;5036605;28;20101;-61
2023/08/07 02:36:55;;;;;;;2.83;1.30;;;13.70;71.80;;;;;;5050178;28;20052;-61
2023/08/07 02:39:21;;;;;;;3.13;1.63;;;13.70;71.80;;;;;;5053570;28;20028;-60
2023/08/07 02:41:46;;;;;;;3.50;1.20;;;13.70;71.60;;;;;;5047516;28;20021;-61
2023/08/07 02:44:12;;;;;;;2.15;1.40;;;13.70;71.70;;;;;;5046760;28;20033;-61
2023/08/07 02:46:38;;;;;;;3.45;1.45;;;13.70;71.60;;;;;;5037628;28;20051;-61
2023/08/07 02:49:04;;;;;;;5.97;1.25;;;13.70;71.60;;;;;;5036679;28;20037;-60
2023/08/07 02:51:30;;;;;;;4.00;1.23;;;13.70;71.50;;;;;;5040888;28;20036;-61
2023/08/07 02:53:56;;;;;;;3.53;1.35;;;13.70;71.50;;;;;;5040810;28;20017;-60
2023/08/07 02:56:21;;;;;;;3.72;1.25;;;13.70;71.70;;;;;;5043136;28;20388;-61
2023/08/07 02:58:47;;;;;;;2.83;1.23;;;13.70;71.70;;;;;;5043055;28;20112;-61
2023/08/07 03:01:13;;;;;;;2.83;1.27;;;13.70;71.60;;;;;;5037085;28;20021;-61
2023/08/07 03:03:39;;;;;;;4.10;1.42;;;13.70;71.50;;;;;;5039681;28;20064;-59
2023/08/07 03:06:04;;;;;;;4.60;1.63;;;13.70;71.40;;;;;;5037709;28;20060;-60
2023/08/07 03:08:30;;;;;;;2.15;1.27;;;13.70;71.30;;;;;;5040338;28;20079;-60
2023/08/07 03:10:57;;;;;;;5.72;1.42;;;13.70;71.30;;;;;;5042857;28;20480;-59
2023/08/07 03:13:24;;;;;;;1.67;1.10;;;13.70;71.20;;;;;;5041810;28;20033;-60
2023/08/07 03:15:50;;;;;;;1.20;1.10;;;13.70;71.20;;;;;;5041190;28;20256;-61
2023/08/07 03:18:18;;;;;;;2.72;1.02;;;13.70;71.00;;;;;;4934589;28;20067;-60
2023/08/07 03:20:44;;;;;;;3.72;1.13;;;13.70;70.80;;;;;;5036292;28;20044;-60
2023/08/07 03:23:10;;;;;;;2.72;1.38;;;13.70;70.80;;;;;;5040489;28;20483;-59
2023/08/07 03:25:36;;;;;;;3.28;1.52;;;13.70;70.80;;;;;;5045931;28;20036;-60
2023/08/07 03:28:02;;;;;;;4.75;1.42;;;13.70;70.80;;;;;;5039802;28;20025;-59
2023/08/07 03:30:28;;;;;;;5.28;1.30;;;13.60;70.80;;;;;;5037429;28;20112;-61
2023/08/07 03:32:53;;;;;;;2.97;1.63;;;13.60;70.70;;;;;;5040008;28;20124;-60
2023/08/07 03:35:19;;;;;;;2.67;1.20;;;13.60;70.70;;;;;;5037686;28;20261;-61
2023/08/07 03:37:45;;;;;;;3.55;1.42;;;13.60;70.80;;;;;;5040369;28;20035;-60
2023/08/07 03:40:11;;;;;;;3.00;1.30;;;13.60;70.90;;;;;;5038944;28;20488;-59
2023/08/07 03:42:36;;;;;;;2.03;1.20;;;13.60;70.90;;;;;;5039192;28;20507;-59
2023/08/07 03:45:02;;;;;;;3.20;1.67;;;13.50;70.80;;;;;;5039145;28;20029;-60
2023/08/07 03:47:28;;;;;;;3.88;1.45;;;13.50;70.80;;;;;;5044285;28;20641;-60
2023/08/07 03:49:53;;;;;;;3.58;1.42;;;13.50;70.80;;;;;;5041173;28;20425;-60
2023/08/07 03:52:19;;;;;;;2.72;1.35;;;13.50;70.80;;;;;;5033029;28;20045;-59
2023/08/07 03:54:45;;;;;;;4.25;1.60;;;13.50;70.80;;;;;;5042187;28;20017;-61
2023/08/07 03:57:10;;;;;;;5.53;1.90;;;13.50;70.70;;;;;;5042425;28;20120;-61
2023/08/07 03:59:36;;;;;;;4.35;1.80;;;13.50;70.70;;;;;;5038685;28;20041;-61
2023/08/07 04:02:02;;;;;;;2.60;1.38;;;13.50;70.70;;;;;;5042840;28;20033;-62
2023/08/07 04:04:28;;;;;;;3.45;1.60;;;13.40;70.70;;;;;;5036238;28;20029;-62
2023/08/07 04:06:54;;;;;;;3.08;1.40;;;13.40;70.60;;;;;;5037704;28;20481;-60
2023/08/07 04:09:19;;;;;;;4.30;1.90;;;13.40;70.60;;;;;;5044031;28;20044;-61
2023/08/07 04:11:45;;;;;;;3.38;1.60;;;13.40;70.60;;;;;;5036740;28;20033;-61
2023/08/07 04:14:11;;;;;;;4.30;1.30;;;13.40;70.60;;;;;;5040219;28;20420;-62
2023/08/07 04:16:37;;;;;;;3.80;1.33;;;13.40;70.70;;;;;;4929691;28;20104;-59
2023/08/07 04:19:03;;;;;;;4.50;1.50;;;13.40;70.70;;;;;;5038642;28;20376;-60
2023/08/07 04:21:30;;;;;;;4.05;1.70;;;13.40;70.60;;;;;;5041503;28;20055;-60
2023/08/07 04:23:56;;;;;;;6.90;1.67;;;13.40;70.50;;;;;;5044573;28;20032;-59
2023/08/07 04:26:22;;;;;;;4.85;1.67;;;13.40;70.40;;;;;;5035206;28;20017;-60
2023/08/07 04:28:47;;;;;;;3.15;1.50;;;13.40;70.40;;;;;;5040390;28;20458;-60
2023/08/07 04:31:13;;;;;;;6.10;1.50;;;13.50;70.20;;;;;;5034177;28;20829;-60
2023/08/07 04:33:39;;;;;;;7.05;2.00;;;13.50;70.20;;;;;;5034861;28;20032;-60
2023/08/07 04:36:05;;;;;;;5.38;1.60;;;13.50;70.10;;;;;;5035119;28;20132;-59
2023/08/07 04:38:30;;;;;;;4.57;1.45;;;13.50;70.10;;;;;;5044407;28;20120;-62
2023/08/07 04:40:56;;;;;;;6.10;1.80;;;13.60;70.10;;;;;;5039379;28;20057;-60
2023/08/07 04:43:22;;;;;;;6.50;1.40;;;13.60;70.00;;;;;;5044200;28;20033;-61
2023/08/07 04:45:48;;;;;;;4.82;1.40;;;13.60;69.90;;;;;;5041904;28;20544;-61
2023/08/07 04:48:14;;;;;;;7.05;1.90;;;13.60;69.90;;;;;;5040135;28;20029;-60
2023/08/07 04:50:40;;;;;;;3.67;1.48;;;13.60;69.60;;;;;;5036691;28;20379;-61
2023/08/07 04:53:06;;;;;;;3.95;1.50;;;13.60;69.50;;;;;;5044022;28;20040;-60
2023/08/07 04:55:32;;;;;;;3.10;1.25;;;13.60;69.40;;;;;;5021917;28;20029;-61
2023/08/07 04:57:58;;;;;;;5.90;1.63;;;13.60;69.40;;;;;;5039599;28;20021;-60
2023/08/07 05:00:24;;;;;;;4.20;1.50;;;13.60;69.50;;;;;;5037065;28;20055;-60
2023/08/07 05:02:50;;;;;;;3.88;1.50;;;13.60;69.50;;;;;;5043725;28;20029;-60
2023/08/07 05:05:18;;;;;;;4.43;1.45;;;13.60;69.50;;;;;;5043290;28;20056;-60
2023/08/07 05:07:44;;;;;;;4.85;1.48;;;13.60;69.60;;;;;;5046123;28;20023;-60
2023/08/07 05:10:10;;;;;;;5.13;1.52;;;13.60;69.60;;;;;;5038352;28;20544;-61
2023/08/07 05:12:36;;;;;;;6.72;1.63;;;13.60;69.50;;;;;;5035289;28;20511;-60
2023/08/07 05:15:01;;;;;;;3.40;1.40;;;13.70;69.50;;;;;;5047147;28;20091;-60
2023/08/07 05:17:27;;;;;;;2.80;1.60;;;13.70;69.30;;;;;;4931529;28;20033;-60
2023/08/07 05:19:53;;;;;;;6.45;1.60;;;13.70;69.40;;;;;;5044032;28;20029;-62
2023/08/07 05:22:19;;;;;;;5.70;1.60;;;13.70;69.30;;;;;;5045490;28;20029;-60
2023/08/07 05:24:45;;;;;;;5.65;1.60;;;13.80;69.20;;;;;;5043065;28;20033;-61
2023/08/07 05:27:11;;;;;;;2.20;1.17;;;13.80;69.30;;;;;;5040482;28;20037;-60
2023/08/07 05:29:43;;;;;;;3.05;1.30;;;13.80;69.20;;;;;;5028003;28;20525;-60
2023/08/07 05:32:10;;;;;;;3.53;1.42;;;13.90;69.10;;;;;;5047074;28;20045;-61
2023/08/07 05:34:36;;;;;;;5.40;1.40;;;13.90;69.10;;;;;;5052095;28;20017;-61
2023/08/07 05:37:01;;;;;;;4.40;1.63;;;13.90;69.10;;;;;;5042487;28;20021;-61
2023/08/07 05:39:27;;;;;;;4.50;1.60;;;14.00;69.10;;;;;;5042800;28;20016;-61
2023/08/07 05:41:54;;;;;;;7.00;1.60;;;14.00;68.90;;;;;;5038063;28;20060;-61
2023/08/07 05:44:20;;;;;;;3.80;1.52;;;14.10;69.00;;;;;;5045884;28;20025;-60
2023/08/07 05:46:46;;;;;;;2.78;1.33;;;14.20;69.20;;;;;;5040576;28;20040;-62
2023/08/07 05:49:11;;;;;;;4.38;1.30;;;14.20;69.00;;;;;;5040022;28;20534;-61
2023/08/07 05:51:37;;;;;;;3.92;1.33;;;14.30;68.60;;;;;;5042883;28;20495;-61
2023/08/07 05:54:03;;;;;;;2.33;1.33;;;14.40;68.70;;;;;;5037648;28;20045;-61
2023/08/07 05:56:28;;;;;;;4.28;1.38;;;14.40;68.60;;;;;;5052421;28;20061;-61
2023/08/07 05:58:54;;;;;;;2.65;1.27;;;14.50;68.60;;;;;;5049984;28;20036;-60
2023/08/07 06:01:20;;;;;;;4.80;1.60;;;14.50;68.20;;;;;;5044161;28;20041;-61
2023/08/07 06:03:46;;;;;;;3.80;1.60;;;14.60;67.90;;;;;;5043862;28;20037;-60
2023/08/07 06:06:12;;;;;;;3.33;1.60;;;14.60;67.90;;;;;;5045916;28;20123;-62
2023/08/07 06:08:37;;;;;;;3.50;1.23;;;14.60;67.70;;;;;;5037674;28;20451;-61
2023/08/07 06:11:04;;;;;;;4.05;1.40;;;14.70;67.70;;;;;;5042918;28;20143;-60
2023/08/07 06:13:30;;;;;;;3.00;1.60;;;14.70;67.60;;;;;;5041424;28;20020;-61
2023/08/07 06:15:56;;;;;;;4.40;1.60;;;14.70;67.40;;;;;;5043779;28;20353;-61
2023/08/07 06:18:22;;;;;;;2.78;1.42;;;14.80;67.30;;;;;;5043552;28;20028;-61
2023/08/07 06:20:47;;;;;;;3.50;1.40;;;14.80;66.90;;;;;;5037586;28;20029;-60
2023/08/07 06:23:13;;;;;;;2.85;1.10;;;14.80;66.40;;;;;;5037094;28;20035;-60
2023/08/07 06:25:39;;;;;;;4.80;1.63;;;14.90;66.60;;;;;;5042302;28;20124;-61
2023/08/07 06:28:04;;;;;;;3.10;1.20;;;14.90;66.80;;;;;;5038595;28;20052;-60
2023/08/07 06:30:33;;;;;;;8.05;1.60;;;15.00;66.70;;;;;;5042104;28;20377;-64
2023/08/07 06:32:58;;;;;;;3.35;1.30;;;15.10;66.50;;;;;;5038578;28;20087;-59
2023/08/07 06:35:24;;;;;;;2.97;1.40;;;15.10;66.60;;;;;;5041149;28;20029;-60
2023/08/07 06:37:50;;;;;;;4.07;1.45;;;15.20;66.50;;;;;;5045191;28;20102;-60
2023/08/07 06:40:15;;;;;;;3.70;1.30;;;15.30;66.50;;;;;;5042616;28;20033;-61
2023/08/07 06:42:41;;;;;;;4.57;1.67;;;15.30;65.30;;;;;;5046062;28;20453;-59
2023/08/07 06:45:07;;;;;;;5.53;1.40;;;15.40;65.40;;;;;;5025266;28;20029;-61
2023/08/07 06:47:33;;;;;;;3.45;1.33;;;15.40;64.50;;;;;;5040445;28;20105;-61
2023/08/07 06:49:58;;;;;;;3.08;1.35;;;15.40;64.00;;;;;;5042175;28;20104;-60
2023/08/07 06:52:24;;;;;;;5.03;1.45;;;15.40;63.90;;;;;;5042922;28;20072;-61
2023/08/07 06:54:50;;;;;;;2.78;1.42;;;15.40;64.10;;;;;;5036801;28;20056;-60
2023/08/07 06:57:15;;;;;;;5.18;1.83;;;15.40;64.10;;;;;;5038620;28;20098;-61
2023/08/07 06:59:41;;;;;;;3.03;1.50;;;15.40;64.40;;;;;;5040497;28;20471;-62
2023/08/07 07:02:07;;;;;;;4.10;1.70;;;15.30;64.50;;;;;;5038167;28;20033;-61
2023/08/07 07:04:33;;;;;;;8.25;1.80;;;15.40;64.90;;;;;;5045620;28;20554;-61
2023/08/07 07:06:59;;;;;;;2.50;1.20;;;15.50;65.00;;;;;;5042397;28;20052;-60
2023/08/07 07:09:24;;;;;;;3.92;1.40;;;15.60;64.20;;;;;;5042518;28;20507;-61
2023/08/07 07:11:50;;;;;;;2.95;1.50;;;15.70;64.00;;;;;;5040311;28;20045;-63
2023/08/07 07:14:16;;;;;;;8.00;1.40;;;15.80;63.90;;;;;;5042467;28;20029;-61
2023/08/07 07:16:43;;;;;;;3.90;1.45;;;15.80;63.90;;;;;;4930335;28;20052;-62
2023/08/07 07:19:09;;;;;;;2.60;1.48;;;15.90;63.60;;;;;;5041039;28;21033;-63
2023/08/07 07:21:35;;;;;;;4.72;1.50;;;16.00;63.00;;;;;;5032580;28;20100;-61
2023/08/07 07:24:02;;;;;;;4.15;1.38;;;16.10;62.80;;;;;;5037982;28;20021;-63
2023/08/07 07:26:28;;;;;;;4.65;1.30;;;16.20;62.20;;;;;;5039025;28;20431;-63
2023/08/07 07:28:54;;;;;;;3.28;1.30;;;16.30;61.80;;;;;;5043342;28;20052;-61
2023/08/07 07:31:19;;;;;;;6.43;1.30;;;16.40;61.80;;;;;;5039810;28;20040;-62
2023/08/07 07:33:46;;;;;;;2.80;1.40;;;16.40;61.00;;;;;;5035398;28;20025;-62
2023/08/07 07:36:21;;;;;;;1.75;1.10;;;16.50;61.10;;;;;;5034758;28;20506;-63
2023/08/07 07:38:47;;;;;;;3.80;1.27;;;16.50;60.50;;;;;;5040818;28;20059;-64
2023/08/07 07:41:14;;;;;;;2.65;1.20;;;16.50;60.80;;;;;;5044066;28;20079;-62
2023/08/07 07:43:40;;;;;;;5.45;1.50;;;16.50;60.60;;;;;;5042758;28;20055;-61
2023/08/07 07:46:06;;;;;;;2.08;1.40;;;16.60;60.30;;;;;;5039965;28;20044;-64
2023/08/07 07:48:32;;;;;;;4.00;1.50;;;16.60;60.00;;;;;;5034100;28;20017;-64
2023/08/07 07:51:04;;;;;;;3.25;1.50;;;16.70;60.60;;;;;;5035730;28;20570;-62
2023/08/07 07:53:30;;;;;;;1.95;1.17;;;16.80;60.20;;;;;;5040375;28;20083;-63
2023/08/07 07:55:56;;;;;;;3.58;1.58;;;16.80;59.90;;;;;;5040569;28;20040;-64
2023/08/07 07:58:23;;;;;;;4.10;1.40;;;16.80;59.30;;;;;;5038482;28;20022;-62
2023/08/07 08:00:48;;;;;;;1.65;1.17;;;16.80;59.60;;;;;;5042451;28;20444;-63
2023/08/07 08:03:14;;;;;;;4.10;1.52;;;16.80;58.90;;;;;;5038269;28;20103;-61
2023/08/07 08:05:40;;;;;;;3.85;1.30;;;16.80;58.90;;;;;;5044059;28;20032;-62
2023/08/07 08:08:09;;;;;;;4.20;1.52;;;16.70;58.90;;;;;;5039921;28;20031;-62
2023/08/07 08:10:35;;;;;;;2.75;1.40;;;16.70;58.70;;;;;;5041201;28;20337;-61
2023/08/07 08:13:03;;;;;;;2.13;1.40;;;16.70;58.10;;;;;;5036153;28;20033;-62
2023/08/07 08:15:29;;;;;;;4.55;1.45;;;16.70;59.40;;;;;;5026628;28;20031;-63
2023/08/07 08:17:55;;;;;;;4.47;1.50;;;16.70;59.60;;;;;;5042260;28;20029;-62
2023/08/07 08:20:21;;;;;;;4.10;1.92;;;16.80;60.00;;;;;;5040947;28;20097;-61
2023/08/07 08:22:47;;;;;;;2.40;1.38;;;16.90;59.60;;;;;;5046938;28;20132;-61
2023/08/07 08:25:13;;;;;;;3.90;1.42;;;17.00;59.10;;;;;;5061765;28;20024;-63
2023/08/07 08:27:39;;;;;;;4.13;1.48;;;17.10;58.50;;;;;;5040518;28;20032;-63
2023/08/07 08:30:06;;;;;;;2.83;1.45;;;17.10;58.60;;;;;;5041130;28;20086;-63
2023/08/07 08:32:32;;;;;;;3.95;1.42;;;17.20;58.60;;;;;;5042774;28;20045;-61
2023/08/07 08:34:57;;;;;;;2.88;1.38;;;17.30;58.60;;;;;;5045343;28;20120;-63
2023/08/07 08:37:23;;;;;;;3.47;1.60;;;17.40;58.20;;;;;;5032717;28;20045;-64
2023/08/07 08:39:49;;;;;;;3.15;1.65;;;17.50;57.80;;;;;;5042875;28;20051;-62
2023/08/07 08:42:17;;;;;;;3.47;1.42;;;17.50;57.70;;;;;;5038395;28;20040;-63
2023/08/07 08:44:53;;;;;;;3.95;1.60;;;17.40;57.40;;;;;;5046929;28;20025;-64
2023/08/07 08:47:20;;;;;;;3.28;1.33;;;17.40;57.40;;;;;;5036096;28;20538;-65
2023/08/07 08:50:06;;;;;;;1.90;1.10;;;17.30;57.50;;;;;;5048729;28;20025;-63
2023/08/07 08:52:33;;;;;;;8.40;1.42;;;17.20;57.20;;;;;;5041510;28;20442;-63
2023/08/07 08:54:59;;;;;;;2.05;1.30;;;17.10;57.60;;;;;;5039851;28;20477;-64
2023/08/07 08:57:28;;;;;;;2.15;1.40;;;17.00;57.80;;;;;;5040088;28;20094;-63
2023/08/07 08:59:56;;;;;;;5.63;1.25;;;17.00;57.90;;;;;;5041996;28;20021;-62
2023/08/07 09:02:22;;;;;;;1.58;1.20;;;17.00;58.10;;;;;;5045212;28;20143;-63
2023/08/07 09:04:48;;;;;;;4.20;1.45;;;16.90;58.20;;;;;;5040861;28;20112;-62
2023/08/07 09:07:15;;;;;;;2.70;1.50;;;17.00;58.20;;;;;;5048785;28;20442;-63
2023/08/07 09:09:42;;;;;;;2.95;1.40;;;17.00;58.40;;;;;;5045650;28;20056;-63
2023/08/07 09:12:23;;;;;;;2.92;1.52;;;17.00;58.20;;;;;;5029555;28;20052;-62
2023/08/07 09:14:56;;;;;;;1.92;1.25;;;17.10;57.30;;;;;;5040467;28;20024;-63
2023/08/07 09:17:31;;;;;;;3.60;1.50;;;17.10;58.30;;;;;;5036433;28;20021;-63
2023/08/07 09:19:58;;;;;;;4.10;1.25;;;17.20;57.80;;;;;;5041402;28;20491;-63
2023/08/07 09:22:24;;;;;;;2.90;1.50;;;17.30;58.00;;;;;;5032505;28;20344;-62
2023/08/07 09:24:50;;;;;;;1.85;1.33;;;17.30;57.90;;;;;;5043117;28;20037;-63
2023/08/07 09:27:16;;;;;;;2.10;1.02;;;17.30;57.60;;;;;;5042754;28;20086;-62
2023/08/07 09:29:46;;;;;;;2.17;1.20;;;17.30;57.40;;;;;;5040153;28;20040;-63
2023/08/07 09:32:13;;;;;;;2.78;1.50;;;17.30;57.50;;;;;;5043681;28;20449;-63
2023/08/07 09:34:42;;;;;;;2.53;1.55;;;17.40;57.20;;;;;;5037154;28;20036;-63
2023/08/07 09:37:10;;;;;;;3.58;1.52;;;17.40;57.40;;;;;;5024272;28;20033;-61
2023/08/07 09:39:37;;;;;;;3.13;1.30;;;17.50;57.40;;;;;;5036639;28;20076;-62
2023/08/07 09:42:15;;;;;;;2.67;1.33;;;17.50;57.30;;;;;;5025334;28;20025;-62
2023/08/07 09:44:41;;;;;;;4.95;1.40;;;17.50;56.90;;;;;;5040918;28;20427;-62
2023/08/07 09:47:15;;;;;;;3.10;1.40;;;17.50;57.10;;;;;;5043439;28;20037;-63
2023/08/07 09:49:41;;;;;;;;;;;17.50;56.00;;;;;;5037192;28;20017;-61
2023/08/07 09:52:08;;;;;;;1.70;1.23;;;17.50;57.00;;;;;;5046731;28;20685;-63
2023/08/07 09:54:35;;;;;;;1.77;1.10;;;17.50;55.80;;;;;;5045424;28;20027;-63
2023/08/07 09:57:04;;;;;;;2.00;0.90;;;17.50;55.10;;;;;;5043779;28;20072;-62
2023/08/07 09:59:31;;;;;;;1.60;1.10;;;17.60;54.90;;;;;;5047550;28;20100;-62
2023/08/07 10:01:57;;;;;;;3.08;1.30;;;17.60;55.10;;;;;;5042272;28;20547;-64
2023/08/07 10:04:23;;;;;;;2.30;1.30;;;17.70;55.00;;;;;;5046516;28;20032;-63
2023/08/07 10:06:50;;;;;;;4.13;1.00;;;17.70;54.60;;;;;;5041168;28;20029;-63
2023/08/07 10:09:16;;;;;;;2.55;1.20;;;17.80;54.70;;;;;;5038821;28;20056;-63
2023/08/07 10:11:42;;;;;;;2.92;1.20;;;17.80;55.30;;;;;;5041015;28;20412;-63
2023/08/07 10:14:13;;;;;;;3.20;1.10;;;17.90;55.50;;;;;;5041270;28;20098;-62
2023/08/07 10:16:41;;;;;;;2.40;1.15;;;18.00;55.60;;;;;;4930601;28;20025;-64
2023/08/07 10:19:07;;;;;;;2.33;1.15;;;18.10;55.00;;;;;;5042247;28;20025;-63
2023/08/07 10:21:36;;;;;;;1.92;1.20;;;18.30;54.90;;;;;;5023645;28;20065;-61
2023/08/07 10:24:05;;;;;;;2.88;1.15;;;18.40;54.70;;;;;;5037845;28;20400;-62
2023/08/07 10:26:33;;;;;;;1.23;1.05;;;18.40;54.50;;;;;;5036624;28;20476;-63
2023/08/07 10:29:02;;;;;;;5.80;1.35;;;18.60;54.20;;;;;;5044588;28;20032;-62
2023/08/07 10:31:30;;;;;;;1.80;1.20;;;18.60;52.50;;;;;;5042189;28;20482;-64
2023/08/07 10:33:55;;;;;;;2.78;1.20;;;18.70;52.20;;;;;;5044617;28;20021;-63
2023/08/07 10:36:21;;;;;;;1.63;1.10;;;18.70;53.20;;;;;;5035578;28;20033;-63
2023/08/07 10:38:53;;;;;;;1.05;0.95;;;18.80;54.30;;;;;;5038487;28;20025;-63
2023/08/07 10:41:19;;;;;;;1.58;1.13;;;18.90;53.50;;;;;;5035981;28;20443;-65
2023/08/07 10:43:47;;;;;;;1.85;0.95;;;19.00;52.50;;;;;;5041273;28;20100;-63
2023/08/07 10:46:16;;;;;;;5.82;1.20;;;19.10;51.70;;;;;;5038761;28;20033;-64
2023/08/07 10:48:54;;;;;;;1.00;0.90;;;19.10;51.60;;;;;;5044265;28;20017;-64
2023/08/07 10:51:20;;;;;;;2.38;1.05;;;19.20;50.60;;;;;;5039697;28;20056;-62
2023/08/07 10:53:51;;;;;;;2.38;1.20;;;19.20;51.90;;;;;;5040505;28;20037;-62
2023/08/07 10:56:34;;;;;;;5.00;1.20;;;19.20;50.90;;;;;;5038790;28;20539;-62
2023/08/07 10:59:09;;;;;;;2.72;1.20;;;19.10;50.70;;;;;;5038683;28;20376;-63
2023/08/07 11:01:40;;;;;;;8.45;1.40;;;19.10;51.50;;;;;;5044290;28;20064;-63
2023/08/07 11:04:09;;;;;;;1.98;1.08;;;19.10;52.10;;;;;;5038617;28;20029;-63
2023/08/07 11:06:36;;;;;;;1.85;1.00;;;19.20;51.70;;;;;;5031130;28;20033;-62
2023/08/07 11:09:08;;;;;;;1.85;1.20;;;19.20;51.80;;;;;;5040152;28;20100;-63
2023/08/07 11:11:41;;;;;;;3.40;1.10;;;19.20;50.60;;;;;;5043234;28;20114;-62
2023/08/07 11:14:12;;;;;;;1.23;0.85;;;19.20;50.30;;;;;;5045891;28;20120;-62
2023/08/07 11:16:38;;;;;;;1.40;0.95;;;19.20;50.40;;;;;;4934836;28;20061;-63
2023/08/07 11:19:05;;;;;;;1.88;1.25;;;19.20;50.80;;;;;;5042848;28;20083;-63
2023/08/07 11:21:32;;;;;;;6.95;1.75;;;19.20;50.90;;;;;;5019680;28;20120;-62
2023/08/07 11:23:58;;;;;;;1.63;1.00;;;19.30;50.60;;;;;;5034578;28;20049;-65
2023/08/07 11:26:25;;;;;;;4.00;1.05;;;19.30;50.40;;;;;;5040917;28;20058;-64
2023/08/07 11:28:52;;;;;;;1.38;1.00;;;19.40;51.10;;;;;;5032800;28;20108;-62
2023/08/07 11:31:21;;;;;;;2.58;0.80;;;19.40;50.10;;;;;;5030276;28;20116;-64
2023/08/07 11:33:53;;;;;;;2.15;0.98;;;19.40;50.00;;;;;;5040800;28;20025;-63
2023/08/07 11:36:18;;;;;;;1.92;1.02;;;19.50;50.20;;;;;;5038576;28;20017;-64
2023/08/07 11:38:44;;;;;;;3.20;1.20;;;19.50;50.60;;;;;;5021347;28;20094;-61
2023/08/07 11:41:12;;;;;;;4.40;1.30;;;19.60;50.10;;;;;;5043411;28;20033;-62
2023/08/07 11:43:39;;;;;;;1.00;0.90;;;19.70;50.10;;;;;;5036550;28;20029;-63
2023/08/07 11:46:07;;;;;;;1.80;1.23;;;19.70;50.70;;;;;;5039528;28;20054;-61
2023/08/07 11:48:34;;;;;;;2.25;1.10;;;19.80;50.20;;;;;;5043479;28;20013;-63
2023/08/07 11:51:01;;;;;;;1.30;0.90;;;19.90;49.10;;;;;;5022567;28;20029;-62
2023/08/07 11:53:28;;;;;;;0.90;0.90;;;19.90;48.40;;;;;;5039081;28;20029;-61
2023/08/07 11:55:59;;;;;;;1.55;0.98;;;19.90;49.00;;;;;;5037913;28;20087;-64
2023/08/07 11:58:27;;;;;;;1.70;1.00;;;19.90;48.50;;;;;;5037641;28;20459;-63
2023/08/07 12:00:54;;;;;;;2.65;0.90;;;19.80;49.20;;;;;;5036751;28;20086;-64
2023/08/07 12:03:28;;;;;;;1.73;1.05;;;19.80;49.20;;;;;;5034456;28;20025;-63
2023/08/07 12:05:56;;;;;;;2.35;0.93;;;19.80;49.00;;;;;;5037250;28;20350;-62
2023/08/07 12:08:22;;;;;;;5.05;1.25;;;19.80;49.10;;;;;;5043898;28;20045;-63
2023/08/07 12:10:53;;;;;;;2.08;1.10;;;19.80;49.70;;;;;;5034891;28;20044;-62
2023/08/07 12:13:29;;;;;;;1.67;1.08;;;19.90;49.30;;;;;;5046520;28;20136;-62
2023/08/07 12:15:56;;;;;;;1.45;1.17;;;19.90;48.40;;;;;;5045031;28;20717;-61
2023/08/07 12:18:23;;;;;;;1.75;1.10;;;20.00;48.90;;;;;;4971801;28;20116;-63
2023/08/07 12:20:52;;;;;;;1.95;0.98;;;19.90;48.80;;;;;;5047289;28;20036;-64
2023/08/07 12:23:20;;;;;;;5.40;1.42;;;19.80;48.60;;;;;;5046655;28;20530;-63
2023/08/07 12:25:47;;;;;;;2.05;1.30;;;19.80;48.70;;;;;;5043803;28;20111;-65
2023/08/07 12:28:13;;;;;;;2.92;1.08;;;19.60;48.40;;;;;;5041833;28;20037;-64
2023/08/07 12:30:39;;;;;;;2.70;1.10;;;19.50;48.90;;;;;;5041348;28;20049;-62
2023/08/07 12:33:05;;;;;;;3.05;1.05;;;19.40;48.70;;;;;;5037662;28;20037;-62
2023/08/07 12:35:31;;;;;;;1.65;1.15;;;19.30;49.50;;;;;;5040561;28;20160;-62
2023/08/07 12:37:57;;;;;;;6.20;1.20;;;19.30;48.90;;;;;;5036973;28;20034;-63
2023/08/07 12:40:23;;;;;;;0.80;0.80;;;19.30;49.70;;;;;;5044008;28;20056;-63
2023/08/07 12:42:52;;;;;;;6.82;1.17;;;19.20;49.70;;;;;;5043329;28;20017;-63
2023/08/07 12:45:18;;;;;;;4.63;1.20;;;19.20;50.10;;;;;;5036673;28;20028;-64
2023/08/07 12:47:45;;;;;;;1.75;1.00;;;19.30;50.60;;;;;;5046181;28;20033;-63